Irish Corners, New York
Current Conditions -  °F | °C
As of 10:53 AM on Saturday 20 Dec 2014 (Local Time) from KMSS Reporting Station
Clear Clear  
Wind Chill: 16°   Ceiling: Unl
Heat Index: 16°   Visibility: 8mi
Dew Point: 14°   Wind: 0mph
Humidity: 92%   Direction: NA
Pressure: 30.35"   Gusts: NA
Location:  44.8293°N, 74.5271°W
Report Text: KMSS 201553Z AUTO 00000KT 8SM CLR M09/M10 A3035 RMK AO2 SLP288 T10891100
Loading
Personal Weather Stations






























Interactive Weather Map New forecast layout! Learn more

10-Day Weather Forecast

Advertisements
Track Severe Weather on mobile